Time;durP1;ratioP1;P1;durP2;ratioP2;P2;SDS_P1;SDS_P2;PMS_P1;PMS_P2;Temp;Humidity;BMP_temperature;BMP_pressure;BME280_temperature;BME280_humidity;BME280_pressure;Samples;Min_cycle;Max_cycle;Signal;HPM_P1;HPM_P2
2022/09/15 00:00:07;;;;;;;8.90;6.13;;;;;;;-144.47;100.00;61586.06;5040134;28;20124;-85
2022/09/15 00:02:33;;;;;;;10.07;6.35;;;;;;;-144.47;100.00;61586.06;5037078;28;20068;-84
2022/09/15 00:04:58;;;;;;;6.78;5.55;;;;;;;-144.47;100.00;61586.06;5043786;28;20037;-83
2022/09/15 00:07:23;;;;;;;7.38;6.63;;;;;;;-144.47;100.00;61586.06;5043573;28;20041;-84
2022/09/15 00:09:49;;;;;;;7.68;6.05;;;;;;;-144.47;100.00;61586.06;5050994;28;20041;-85
2022/09/15 00:12:14;;;;;;;7.88;7.07;;;;;;;-144.47;100.00;61586.06;5039471;28;20117;-87
2022/09/15 00:14:40;;;;;;;11.48;6.40;;;;;;;-144.47;100.00;61586.06;5047216;28;20052;-85
2022/09/15 00:17:05;;;;;;;8.48;6.90;;;;;;;-144.47;100.00;61586.06;5039786;28;20115;-87
2022/09/15 00:19:31;;;;;;;8.90;6.63;;;;;;;-144.47;100.00;61586.06;5041990;28;20469;-90
2022/09/15 00:21:56;;;;;;;8.63;6.55;;;;;;;-144.47;100.00;61586.06;5051981;28;20032;-91
2022/09/15 00:24:22;;;;;;;8.30;7.35;;;;;;;-144.47;100.00;61586.06;5020864;28;20037;-90
2022/09/15 00:26:47;;;;;;;7.75;7.05;;;;;;;-144.47;100.00;61586.06;5036432;28;20057;-90
2022/09/15 00:29:13;;;;;;;9.15;7.95;;;;;;;-144.47;100.00;61586.06;5051626;28;20037;-91
2022/09/15 00:31:38;;;;;;;8.65;7.75;;;;;;;-144.47;100.00;61586.06;5039808;28;20040;-90
2022/09/15 00:34:05;;;;;;;10.68;7.40;;;;;;;-144.47;100.00;61586.06;5039406;28;20034;-90
2022/09/15 00:36:31;;;;;;;9.25;8.32;;;;;;;-144.47;100.00;61586.06;5018886;28;20386;-89
2022/09/15 00:38:57;;;;;;;13.48;9.98;;;;;;;-144.47;100.00;61586.06;5021243;28;20041;-92
2022/09/15 00:41:23;;;;;;;11.32;10.20;;;;;;;-144.47;100.00;61586.06;5040337;28;20091;-91
2022/09/15 00:44:01;;;;;;;17.23;12.73;;;;;;;-144.47;100.00;61586.06;5038300;28;20033;-89
2022/09/15 00:46:26;;;;;;;;;;;;;;;-144.47;100.00;61586.06;5039075;28;20167;-89
2022/09/15 00:48:57;;;;;;;;;;;;;;;-144.47;100.00;61586.06;5037230;28;19971;-90
2022/09/15 00:51:29;;;;;;;;;;;;;;;-144.47;100.00;61586.06;5039787;28;19917;-89
2022/09/15 00:53:56;;;;;;;;;;;;;;;-144.47;100.00;61586.06;5038430;28;19927;-90
2022/09/15 00:56:22;;;;;;;;;;;;;;;-144.47;100.00;61586.06;5049322;28;19917;-91
2022/09/15 00:58:56;;;;;;;;;;;;;;;-144.47;100.00;61586.06;5033969;28;20316;-87
2022/09/15 01:01:24;;;;;;;;;;;;;;;-144.47;100.00;61586.06;5010811;28;19921;-87
2022/09/15 01:03:49;;;;;;;;;;;;;;;-144.47;100.00;61586.06;5033165;28;19921;-87
2022/09/15 01:06:16;;;;;;;;;;;;;;;-144.47;100.00;61586.06;5035852;28;20409;-88
2022/09/15 01:08:52;;;;;;;;;;;;;;;-144.47;100.00;61586.06;5036806;28;19963;-87
2022/09/15 01:11:18;;;;;;;;;;;;;;;-144.47;100.00;61586.06;5016871;28;19918;-85
2022/09/15 01:13:43;;;;;;;;;;;;;;;-144.47;100.00;61586.06;5041961;28;19917;-88
2022/09/15 01:16:09;;;;;;;;;;;;;;;-144.47;100.00;61586.06;5050100;28;19917;-81
2022/09/15 01:19:09;;;;;;;7.80;7.03;;;;;;;-144.47;100.00;61586.06;5046981;28;20008;-85
2022/09/15 01:21:47;;;;;;;7.30;6.60;;;;;;;-144.47;100.00;61586.06;5002105;28;20045;-86
2022/09/15 01:24:32;;;;;;;11.15;8.18;;;;;;;-144.47;100.00;61586.06;5023358;28;20041;-81
2022/09/15 01:27:06;;;;;;;9.18;7.57;;;;;;;-144.47;100.00;61586.06;5035379;28;20127;-88
2022/09/15 01:29:32;;;;;;;12.02;6.80;;;;;;;-144.47;100.00;61586.06;5036224;28;20105;-88
2022/09/15 01:35:43;;;;;;;14.50;7.57;;;;;;;-144.47;100.00;61586.06;5034289;28;20029;-87
2022/09/15 01:38:23;;;;;;;9.98;8.98;;;;;;;-144.47;100.00;61586.06;5030250;28;20072;-86
2022/09/15 01:40:55;;;;;;;14.57;11.45;;;;;;;-144.47;100.00;61586.06;5033621;28;20049;-89
2022/09/15 01:43:23;;;;;;;12.02;10.65;;;;;;;-144.47;100.00;61586.06;5037971;28;20026;-89
2022/09/15 01:45:50;;;;;;;13.23;11.80;;;;;;;-144.47;100.00;61586.06;5033777;28;20106;-88
2022/09/15 01:48:20;;;;;;;15.50;12.10;;;;;;;-144.47;100.00;61586.06;5064694;22;20046;-81
2022/09/15 01:50:54;;;;;;;13.57;12.05;;;;;;;-144.47;100.00;61586.06;5004059;28;20046;-84
2022/09/15 01:53:21;;;;;;;12.30;10.63;;;;;;;-144.47;100.00;61586.06;5032794;28;20046;-84
2022/09/15 01:56:06;;;;;;;15.00;11.85;;;;;;;-144.47;100.00;61586.06;5017001;28;20034;-83
2022/09/15 01:58:33;;;;;;;15.90;13.40;;;;;;;-144.47;100.00;61586.06;5008060;28;20034;-84
2022/09/15 02:01:11;;;;;;;16.70;14.15;;;;;;;-144.47;100.00;61586.06;5000926;28;20474;-83
2022/09/15 02:03:43;;;;;;;15.82;14.20;;;;;;;-144.47;100.00;61586.06;5004271;28;20037;-83
2022/09/15 02:06:42;;;;;;;17.60;14.85;;;;;;;-144.47;100.00;61586.06;5001214;28;20447;-83
2022/09/15 02:09:19;;;;;;;16.15;14.50;;;;;;;-144.47;100.00;61586.06;4994961;28;20041;-84
2022/09/15 02:12:13;;;;;;;15.30;13.82;;;;;;;-144.47;100.00;61586.06;5024607;28;20568;-85
2022/09/15 02:14:51;;;;;;;19.77;15.68;;;;;;;-144.47;100.00;61586.06;5019478;28;20509;-85
2022/09/15 02:17:19;;;;;;;19.23;14.70;;;;;;;-144.47;100.00;61586.06;5024589;28;20560;-85
2022/09/15 02:19:52;;;;;;;17.20;14.30;;;;;;;-144.47;100.00;61586.06;5006252;28;20073;-85
2022/09/15 02:22:26;;;;;;;15.00;13.25;;;;;;;-144.47;100.00;61586.06;5008156;28;20042;-83
2022/09/15 02:25:01;;;;;;;15.93;12.90;;;;;;;-144.47;100.00;61586.06;5004660;28;20096;-84
2022/09/15 02:27:30;;;;;;;13.05;11.75;;;;;;;-144.47;100.00;61586.06;5007791;28;20182;-85
2022/09/15 02:30:05;;;;;;;14.35;12.07;;;;;;;-144.47;100.00;61586.06;5007013;28;20741;-83
2022/09/15 02:32:33;;;;;;;16.75;11.35;;;;;;;-144.47;100.00;61586.06;5010702;28;20029;-85
2022/09/15 02:35:04;;;;;;;12.57;11.27;;;;;;;-144.47;100.00;61586.06;5005779;28;20034;-85
2022/09/15 02:37:30;;;;;;;11.75;10.65;;;;;;;-144.47;100.00;61586.06;5024810;28;20084;-83
2022/09/15 02:39:57;;;;;;;12.52;11.32;;;;;;;-144.47;100.00;61586.06;5005014;28;20042;-86
2022/09/15 02:42:25;;;;;;;13.98;12.48;;;;;;;-144.47;100.00;61586.06;5023129;28;20028;-86
2022/09/15 02:44:51;;;;;;;13.18;11.73;;;;;;;-144.47;100.00;61586.06;5007861;28;20034;-85
2022/09/15 02:47:17;;;;;;;15.15;12.50;;;;;;;-144.47;100.00;61586.06;5004948;28;20037;-86
2022/09/15 02:49:42;;;;;;;12.68;11.25;;;;;;;-144.47;100.00;61586.06;5010435;28;20038;-83
2022/09/15 02:52:08;;;;;;;12.40;11.13;;;;;;;-144.47;100.00;61586.06;5004378;28;20041;-83
2022/09/15 02:54:33;;;;;;;11.90;10.80;;;;;;;-144.47;100.00;61586.06;5008392;28;20029;-83
2022/09/15 02:56:59;;;;;;;14.07;10.55;;;;;;;-144.47;100.00;61586.06;5007083;28;20461;-83
2022/09/15 02:59:25;;;;;;;11.32;10.20;;;;;;;-144.47;100.00;61586.06;5021269;28;20033;-83
2022/09/15 03:01:51;;;;;;;12.32;11.13;;;;;;;-144.47;100.00;61586.06;5006785;28;20498;-83
2022/09/15 03:04:18;;;;;;;12.10;10.90;;;;;;;-144.47;100.00;61586.06;5004676;28;20117;-83
2022/09/15 03:06:43;;;;;;;13.05;10.77;;;;;;;-144.47;100.00;61586.06;5008303;28;20037;-83
2022/09/15 03:09:09;;;;;;;11.30;10.30;;;;;;;-144.47;100.00;61586.06;5005511;28;20372;-83
2022/09/15 03:11:35;;;;;;;13.48;10.88;;;;;;;-144.47;100.00;61586.06;5005773;28;20054;-85
2022/09/15 03:14:04;;;;;;;14.25;10.88;;;;;;;-144.47;100.00;61586.06;5007346;28;20022;-84
2022/09/15 03:16:31;;;;;;;11.98;10.38;;;;;;;-144.47;100.00;61586.06;5035790;28;20505;-83
2022/09/15 03:18:58;;;;;;;12.40;11.23;;;;;;;-144.47;100.00;61586.06;5009087;28;20475;-84
2022/09/15 03:21:25;;;;;;;14.38;10.93;;;;;;;-144.47;100.00;61586.06;5035326;28;20113;-82
2022/09/15 03:23:50;;;;;;;11.57;10.57;;;;;;;-144.47;100.00;61586.06;5023501;28;20034;-85
2022/09/15 03:26:16;;;;;;;11.07;9.98;;;;;;;-144.47;100.00;61586.06;5007551;28;20149;-84
2022/09/15 03:28:42;;;;;;;14.98;9.82;;;;;;;-144.47;100.00;61586.06;5010812;28;20378;-84
2022/09/15 03:31:08;;;;;;;12.85;10.40;;;;;;;-144.47;100.00;61586.06;5006457;28;20045;-84
2022/09/15 03:33:34;;;;;;;10.85;9.95;;;;;;;-144.47;100.00;61586.06;5004272;28;20029;-83
2022/09/15 03:36:01;;;;;;;14.10;10.25;;;;;;;-144.47;100.00;61586.06;5009169;28;20482;-83
2022/09/15 03:38:27;;;;;;;14.23;10.45;;;;;;;-144.47;100.00;61586.06;5003345;28;20026;-83
2022/09/15 03:41:02;;;;;;;12.32;9.70;;;;;;;-144.47;100.00;61586.06;5008233;28;20044;-81
2022/09/15 03:43:29;;;;;;;12.27;11.05;;;;;;;-144.47;100.00;61586.06;5036260;28;20030;-82
2022/09/15 03:45:54;;;;;;;14.27;11.10;;;;;;;-144.47;100.00;61586.06;5010437;28;20049;-82
2022/09/15 03:48:21;;;;;;;12.77;11.40;;;;;;;-144.47;100.00;61586.06;5006423;28;20038;-83
2022/09/15 03:50:47;;;;;;;13.63;11.45;;;;;;;-144.47;100.00;61586.06;5006735;28;20066;-83
2022/09/15 03:53:12;;;;;;;12.55;11.32;;;;;;;-144.47;100.00;61586.06;5008287;28;20116;-83
2022/09/15 03:55:38;;;;;;;12.98;11.70;;;;;;;-144.47;100.00;61586.06;5004053;28;20061;-83
2022/09/15 03:58:03;;;;;;;13.45;11.23;;;;;;;-144.47;100.00;61586.06;5008658;28;20034;-84
2022/09/15 04:00:29;;;;;;;13.07;10.55;;;;;;;-144.47;100.00;61586.06;5006280;28;20098;-84
2022/09/15 04:02:54;;;;;;;13.35;9.98;;;;;;;-144.47;100.00;61586.06;5011190;28;20111;-83
2022/09/15 04:05:20;;;;;;;11.68;10.10;;;;;;;-144.47;100.00;61586.06;5008566;28;20040;-84
2022/09/15 04:07:45;;;;;;;13.10;9.95;;;;;;;-144.47;100.00;61586.06;5007744;28;20064;-83
2022/09/15 04:10:11;;;;;;;11.30;10.07;;;;;;;-144.47;100.00;61586.06;5011971;28;20038;-85
2022/09/15 04:12:37;;;;;;;11.70;10.23;;;;;;;-144.47;100.00;61586.06;5007422;28;20022;-84
2022/09/15 04:15:03;;;;;;;13.93;11.13;;;;;;;-144.47;100.00;61586.06;5011425;28;20364;-85
2022/09/15 04:17:28;;;;;;;16.30;11.82;;;;;;;-144.47;100.00;61586.06;5009949;28;20137;-83
2022/09/15 04:19:54;;;;;;;13.57;12.18;;;;;;;-144.47;100.00;61586.06;5008607;28;20036;-83
2022/09/15 04:22:20;;;;;;;13.43;12.13;;;;;;;-144.47;100.00;61586.06;5010454;28;20036;-84
2022/09/15 04:24:47;;;;;;;15.95;11.80;;;;;;;-144.47;100.00;61586.06;5012470;28;20045;-85
2022/09/15 04:27:13;;;;;;;13.98;11.98;;;;;;;-144.47;100.00;61586.06;5010363;28;20030;-84
2022/09/15 04:29:39;;;;;;;15.27;13.77;;;;;;;-144.47;100.00;61586.06;5008810;28;20045;-84
2022/09/15 04:32:06;;;;;;;18.20;13.77;;;;;;;-144.47;100.00;61586.06;5007324;28;20030;-84
2022/09/15 04:34:31;;;;;;;14.10;12.70;;;;;;;-144.47;100.00;61586.06;5009657;28;20065;-84
2022/09/15 04:36:57;;;;;;;15.80;14.10;;;;;;;-144.47;100.00;61586.06;5037732;28;20061;-84
2022/09/15 04:39:24;;;;;;;15.80;13.80;;;;;;;-144.47;100.00;61586.06;5010013;28;20116;-83
2022/09/15 04:41:50;;;;;;;14.55;12.77;;;;;;;-144.47;100.00;61586.06;5011628;28;20032;-83
2022/09/15 04:44:15;;;;;;;15.43;13.93;;;;;;;-144.47;100.00;61586.06;5009681;28;20359;-83
2022/09/15 04:46:41;;;;;;;18.02;14.80;;;;;;;-144.47;100.00;61586.06;5006661;28;20490;-83
2022/09/15 04:49:06;;;;;;;19.30;14.90;;;;;;;-144.47;100.00;61586.06;5024573;28;20048;-83
2022/09/15 04:51:32;;;;;;;18.33;15.85;;;;;;;-144.47;100.00;61586.06;5010247;28;20049;-83
2022/09/15 04:53:57;;;;;;;20.98;17.63;;;;;;;-144.47;100.00;61586.06;5006554;28;20109;-85
2022/09/15 04:56:24;;;;;;;21.20;18.15;;;;;;;-144.47;100.00;61586.06;5009553;28;20062;-81
2022/09/15 04:58:53;;;;;;;20.08;17.90;;;;;;;-144.47;100.00;61586.06;5009304;28;20042;-80
2022/09/15 05:01:21;;;;;;;24.77;18.80;;;;;;;-144.47;100.00;61586.06;5042855;28;20034;-82
2022/09/15 05:03:47;;;;;;;19.92;17.60;;;;;;;-144.47;100.00;61586.06;5009676;28;20038;-83
2022/09/15 05:06:16;;;;;;;19.88;17.98;;;;;;;-144.47;100.00;61586.06;5042829;28;20044;-79
2022/09/15 05:08:45;;;;;;;19.85;17.85;;;;;;;-144.47;100.00;61586.06;5006596;28;20033;-78
2022/09/15 05:11:12;;;;;;;18.60;16.80;;;;;;;-144.47;100.00;61586.06;5007197;28;20038;-77
2022/09/15 05:13:39;;;;;;;18.60;16.70;;;;;;;-144.47;100.00;61586.06;5008871;28;20049;-78
2022/09/15 05:16:09;;;;;;;22.52;17.27;;;;;;;-144.47;100.00;61586.06;5007494;28;20476;-78
2022/09/15 05:18:34;;;;;;;21.40;17.35;;;;;;;-144.47;100.00;61586.06;5008540;28;20104;-79
2022/09/15 05:21:01;;;;;;;18.27;16.55;;;;;;;-144.47;100.00;61586.06;5010343;28;20034;-76
2022/09/15 05:23:27;;;;;;;20.30;16.27;;;;;;;-144.47;100.00;61586.06;5011054;28;20146;-77
2022/09/15 05:25:55;;;;;;;18.00;15.55;;;;;;;-144.47;100.00;61586.06;5041190;28;20109;-77
2022/09/15 05:28:21;;;;;;;16.27;14.68;;;;;;;-144.47;100.00;61586.06;5011679;28;20038;-76
2022/09/15 05:30:46;;;;;;;18.98;16.73;;;;;;;-144.47;100.00;61586.06;5008396;28;20479;-78
2022/09/15 05:33:12;;;;;;;18.23;16.42;;;;;;;-144.47;100.00;61586.06;5012493;28;20479;-76
2022/09/15 05:35:38;;;;;;;23.90;17.95;;;;;;;-144.47;100.00;61586.06;5010384;28;20065;-75
2022/09/15 05:38:03;;;;;;;18.67;16.88;;;;;;;-144.47;100.00;61586.06;5025437;28;20038;-76
2022/09/15 05:40:28;;;;;;;20.65;17.83;;;;;;;-144.47;100.00;61586.06;5006046;28;20101;-75
2022/09/15 05:42:54;;;;;;;18.30;15.15;;;;;;;-144.47;100.00;61586.06;5006798;28;20070;-75
2022/09/15 05:45:19;;;;;;;18.45;16.55;;;;;;;-144.47;100.00;61586.06;5006223;28;20029;-77
2022/09/15 05:47:45;;;;;;;19.67;17.67;;;;;;;-144.47;100.00;61586.06;5006145;28;20030;-75
2022/09/15 05:50:10;;;;;;;19.23;17.10;;;;;;;-144.47;100.00;61586.06;5008826;28;20056;-75
2022/09/15 05:52:36;;;;;;;21.40;16.75;;;;;;;-144.47;100.00;61586.06;5008975;28;20037;-75
2022/09/15 05:55:02;;;;;;;18.52;16.70;;;;;;;-144.47;100.00;61586.06;5009239;28;20102;-76
2022/09/15 05:57:28;;;;;;;19.15;17.15;;;;;;;-144.47;100.00;61586.06;5007279;28;20031;-76
2022/09/15 05:59:54;;;;;;;20.00;18.02;;;;;;;-144.47;100.00;61586.06;5034608;28;20561;-83
2022/09/15 06:02:19;;;;;;;25.33;19.35;;;;;;;-144.47;100.00;61586.06;4678841;28;10000378;-86
2022/09/15 06:04:46;;;;;;;22.60;20.30;;;;;;;-144.47;100.00;61586.06;5022511;28;20057;-82
2022/09/15 06:07:11;;;;;;;23.13;20.55;;;;;;;-144.47;100.00;61586.06;5009136;28;20511;-79
2022/09/15 06:09:37;;;;;;;22.75;18.85;;;;;;;-144.47;100.00;61586.06;5007320;28;20034;-80
2022/09/15 06:12:03;;;;;;;19.95;16.88;;;;;;;-144.47;100.00;61586.06;5006121;28;20026;-79
2022/09/15 06:14:28;;;;;;;18.27;16.38;;;;;;;-144.47;100.00;61586.06;5007587;28;20032;-80
2022/09/15 06:16:53;;;;;;;21.27;16.95;;;;;;;-144.47;100.00;61586.06;5004945;28;20842;-79
2022/09/15 06:19:19;;;;;;;19.80;17.80;;;;;;;-144.47;100.00;61586.06;5007367;28;20080;-79
2022/09/15 06:21:44;;;;;;;18.98;16.70;;;;;;;-144.47;100.00;61586.06;5007667;28;20046;-78
2022/09/15 06:24:11;;;;;;;19.20;16.92;;;;;;;-144.47;100.00;61586.06;5009461;28;20403;-78
2022/09/15 06:26:37;;;;;;;19.65;17.58;;;;;;;-144.47;100.00;61586.06;5019807;28;20057;-78
2022/09/15 06:29:04;;;;;;;22.48;20.08;;;;;;;-144.47;100.00;61586.06;5010316;28;20068;-77
2022/09/15 06:31:31;;;;;;;23.05;20.73;;;;;;;-144.47;100.00;61586.06;5004985;28;20023;-78
2022/09/15 06:33:58;;;;;;;24.02;21.55;;;;;;;-144.47;100.00;61586.06;5007894;28;20132;-79
2022/09/15 06:36:26;;;;;;;24.40;21.98;;;;;;;-144.47;100.00;61586.06;5010397;28;20026;-79
2022/09/15 06:38:52;;;;;;;23.30;20.63;;;;;;;-144.47;100.00;61586.06;5010227;28;20030;-79
2022/09/15 06:41:18;;;;;;;24.80;22.33;;;;;;;-144.47;100.00;61586.06;5010722;28;20045;-79
2022/09/15 06:43:44;;;;;;;26.55;22.40;;;;;;;-144.47;100.00;61586.06;5004208;28;20038;-80
2022/09/15 06:46:15;;;;;;;22.83;20.33;;;;;;;-144.47;100.00;61586.06;5009124;28;20034;-78
2022/09/15 06:48:41;;;;;;;23.83;19.45;;;;;;;-144.47;100.00;61586.06;5003381;28;20034;-79
2022/09/15 06:51:09;;;;;;;26.10;22.63;;;;;;;-144.47;100.00;61586.06;5008482;28;20038;-77
2022/09/15 06:53:39;;;;;;;28.13;25.17;;;;;;;-144.47;100.00;61586.06;5022001;28;20034;-80
2022/09/15 06:56:13;;;;;;;30.77;25.67;;;;;;;-144.47;100.00;61586.06;5007711;28;20109;-79
2022/09/15 06:58:40;;;;;;;28.23;25.30;;;;;;;-144.47;100.00;61586.06;5022592;28;20113;-79
2022/09/15 07:01:08;;;;;;;27.52;24.42;;;;;;;-144.47;100.00;61586.06;5004648;28;20037;-78
2022/09/15 07:03:38;;;;;;;27.88;25.02;;;;;;;-144.47;100.00;61586.06;5008598;28;20030;-79
2022/09/15 07:06:05;;;;;;;27.27;24.73;;;;;;;-144.47;100.00;61586.06;5007040;28;20040;-79
2022/09/15 07:08:30;;;;;;;27.45;24.70;;;;;;;-144.47;100.00;61586.06;5005678;28;20026;-78
2022/09/15 07:10:56;;;;;;;28.60;25.55;;;;;;;-144.47;100.00;61586.06;5006113;28;20452;-80
2022/09/15 07:13:23;;;;;;;29.10;26.30;;;;;;;-144.47;100.00;61586.06;5006235;28;20742;-79
2022/09/15 07:15:53;;;;;;;25.65;23.10;;;;;;;-144.47;100.00;61586.06;5005428;28;20904;-77
2022/09/15 07:18:18;;;;;;;26.10;23.38;;;;;;;-144.47;100.00;61586.06;5004489;28;20410;-79
2022/09/15 07:20:45;;;;;;;;;;;;;;;-144.47;100.00;61586.06;5008622;28;20568;-79
2022/09/15 07:23:10;;;;;;;;;;;;;;;-144.47;100.00;61586.06;5002801;28;20350;-78
2022/09/15 07:25:36;;;;;;;;;;;;;;;-144.47;100.00;61586.06;5007132;28;19928;-78
2022/09/15 07:28:02;;;;;;;;;;;;;;;-144.47;100.00;61586.06;5006875;28;20059;-79
2022/09/15 07:30:27;;;;;;;;;;;;;;;-144.47;100.00;61586.06;5004710;28;19922;-79
2022/09/15 07:32:53;;;;;;;;;;;;;;;-144.47;100.00;61586.06;5006441;28;19924;-79
2022/09/15 07:35:20;;;;;;;;;;;;;;;-144.47;100.00;61586.06;5010545;28;20350;-79
2022/09/15 07:37:50;;;;;;;;;;;;;;;-144.47;100.00;61586.06;5010121;28;19921;-79
2022/09/15 07:40:16;;;;;;;;;;;;;;;-144.47;100.00;61586.06;5009317;28;19969;-79
2022/09/15 07:42:42;;;;;;;;;;;;;;;-144.47;100.00;61586.06;5009601;28;20445;-79
2022/09/15 07:45:08;;;;;;;;;;;;;;;-144.47;100.00;61586.06;5010144;28;19917;-79
2022/09/15 07:47:33;;;;;;;;;;;;;;;-144.47;100.00;61586.06;5039835;28;19979;-79
2022/09/15 07:49:59;;;;;;;;;;;;;;;-144.47;100.00;61586.06;5012033;28;19964;-79
2022/09/15 07:52:24;;;;;;;;;;;;;;;-144.47;100.00;61586.06;5038622;28;19921;-79
2022/09/15 07:54:49;;;;;;;;;;;;;;;-144.47;100.00;61586.06;5013728;28;19921;-80
2022/09/15 07:57:16;;;;;;;;;;;;;;;-144.47;100.00;61586.06;5009190;28;20012;-79
2022/09/15 07:59:41;;;;;;;;;;;;;;;-144.47;100.00;61586.06;5010078;28;20378;-80
2022/09/15 08:02:16;;;;;;;;;;;;;;;-144.47;100.00;61586.06;5010296;28;19917;-79
2022/09/15 08:04:41;;;;;;;;;;;;;;;-144.47;100.00;61586.06;5009584;28;19918;-80
2022/09/15 08:07:06;;;;;;;;;;;;;;;-144.47;100.00;61586.06;5014094;28;19968;-79
2022/09/15 08:09:32;;;;;;;32.47;25.85;;;;;;;-144.47;100.00;61586.06;5005620;28;20282;-79
2022/09/15 08:11:57;;;;;;;26.05;23.25;;;;;;;-144.47;100.00;61586.06;5010106;28;20087;-79
2022/09/15 08:14:23;;;;;;;26.80;22.33;;;;;;;-144.47;100.00;61586.06;5007824;28;20060;-78
2022/09/15 08:16:48;;;;;;;28.15;24.05;;;;;;;-144.47;100.00;61586.06;5009606;28;20041;-79
2022/09/15 08:19:14;;;;;;;25.77;22.88;;;;;;;-144.47;100.00;61586.06;5009344;28;20433;-78
2022/09/15 08:21:39;;;;;;;25.48;22.58;;;;;;;-144.47;100.00;61586.06;5007857;28;20436;-79
2022/09/15 08:24:05;;;;;;;25.88;21.70;;;;;;;-144.47;100.00;61586.06;5009528;28;20038;-80
2022/09/15 08:26:30;;;;;;;22.13;19.75;;;;;;;-144.47;100.00;61586.06;5006972;28;20034;-79
2022/09/15 08:28:57;;;;;;;20.70;18.27;;;;;;;-144.47;100.00;61586.06;5010520;28;20034;-79
2022/09/15 08:31:25;;;;;;;;;;;;;;;-144.47;100.00;61586.06;5007904;28;20150;-79
2022/09/15 08:33:51;;;;;;;;;;;;;;;-144.47;100.00;61586.06;5002802;28;19921;-79
2022/09/15 08:36:17;;;;;;;;;;;;;;;-144.47;100.00;61586.06;5012581;28;19921;-78
2022/09/15 08:38:43;;;;;;;;;;;;;;;-144.47;100.00;61586.06;5007856;28;19963;-78
2022/09/15 08:41:20;;;;;;;;;;;;;;;-144.47;100.00;61586.06;5009589;28;19918;-80
2022/09/15 08:43:46;;;;;;;;;;;;;;;-144.47;100.00;61586.06;5006531;28;19918;-79
2022/09/15 08:46:13;;;;;;;;;;;;;;;-144.47;100.00;61586.06;5010713;28;19917;-80
2022/09/15 08:48:42;;;;;;;;;;;;;;;-144.47;100.00;61586.06;5005596;28;19977;-79
2022/09/15 08:51:14;;;;;;;;;;;;;;;-144.47;100.00;61586.06;5010193;28;19917;-78
2022/09/15 08:53:44;;;;;;;;;;;;;;;-144.47;100.00;61586.06;5012032;28;19924;-80
2022/09/15 08:56:13;;;;;;;;;;;;;;;-144.47;100.00;61586.06;5008110;28;19918;-78
2022/09/15 08:58:38;;;;;;;;;;;;;;;-144.47;100.00;61586.06;5011492;28;20294;-79
2022/09/15 09:01:09;;;;;;;;;;;;;;;-144.47;100.00;61586.06;5008717;28;19918;-79
2022/09/15 09:03:35;;;;;;;;;;;;;;;-144.47;100.00;61586.06;5009407;28;19960;-79
2022/09/15 09:06:14;;;;;;;;;;;;;;;-144.47;100.00;61586.06;5008750;28;20418;-77
2022/09/15 09:08:46;;;;;;;;;;;;;;;-144.47;100.00;61586.06;5009430;28;19923;-77
2022/09/15 09:11:30;;;;;;;;;;;;;;;-144.47;100.00;61586.06;5010309;28;19925;-78
2022/09/15 09:14:10;;;;;;;;;;;;;;;-144.47;100.00;61586.06;5008522;28;19925;-76
2022/09/15 09:16:44;;;;;;;;;;;;;;;-144.47;100.00;61586.06;5006715;28;19924;-78
2022/09/15 09:19:10;;;;;;;;;;;;;;;-144.47;100.00;61586.06;5010005;28;19963;-78
2022/09/15 09:21:40;;;;;;;;;;;;;;;-144.47;100.00;61586.06;5007742;28;20605;-77
2022/09/15 09:24:24;;;;;;;;;;;;;;;-144.47;100.00;61586.06;5008586;28;20521;-78
2022/09/15 09:26:53;;;;;;;;;;;;;;;-144.47;100.00;61586.06;5006417;28;20322;-77
2022/09/15 09:29:25;;;;;;;;;;;;;;;-144.47;100.00;61586.06;5011001;28;19918;-78
2022/09/15 09:31:53;;;;;;;;;;;;;;;-144.47;100.00;61586.06;5024436;28;19921;-78
2022/09/15 09:34:38;;;;;;;;;;;;;;;-144.47;100.00;61586.06;5005292;28;20011;-78
2022/09/15 09:37:12;;;;;;;;;;;;;;;-144.47;100.00;61586.06;5009291;28;20286;-78
2022/09/15 09:39:38;;;;;;;;;;;;;;;-144.47;100.00;61586.06;5006815;28;20367;-77
2022/09/15 09:42:05;;;;;;;;;;;;;;;-144.47;100.00;61586.06;5009090;28;19925;-78
2022/09/15 09:44:31;;;;;;;;;;;;;;;-144.47;100.00;61586.06;5006181;28;19925;-78
2022/09/15 09:46:58;;;;;;;;;;;;;;;-144.47;100.00;61586.06;5008330;28;19922;-77
2022/09/15 09:49:24;;;;;;;;;;;;;;;-144.47;100.00;61586.06;5009838;28;20397;-78
2022/09/15 09:51:51;;;;;;;;;;;;;;;-144.47;100.00;61586.06;5006921;28;19918;-78
2022/09/15 09:54:19;;;;;;;;;;;;;;;-144.47;100.00;61586.06;5008219;28;19921;-80
2022/09/15 09:56:48;;;;;;;;;;;;;;;-144.47;100.00;61586.06;5007802;28;20020;-77
2022/09/15 09:59:34;;;;;;;;;;;;;;;-144.47;100.00;61586.06;5008016;28;19925;-77
2022/09/15 10:02:11;;;;;;;;;;;;;;;-144.47;100.00;61586.06;5008947;28;19917;-78
2022/09/15 10:04:37;;;;;;;;;;;;;;;-144.47;100.00;61586.06;5008302;28;19924;-77
2022/09/15 10:07:04;;;;;;;;;;;;;;;-144.47;100.00;61586.06;5006602;28;19964;-78
2022/09/15 10:09:29;;;;;;;;;;;;;;;-144.47;100.00;61586.06;5010475;28;20040;-78
2022/09/15 10:11:57;;;;;;;;;;;;;;;-144.47;100.00;61586.06;5006382;28;19968;-77
2022/09/15 10:14:34;;;;;;;;;;;;;;;-144.47;100.00;61586.06;5007710;28;20362;-78
2022/09/15 10:16:59;;;;;;;;;;;;;;;-144.47;100.00;61586.06;5007259;28;19918;-78
2022/09/15 10:19:26;;;;;;;;;;;;;;;-144.47;100.00;61586.06;5007603;28;20353;-78
2022/09/15 10:21:51;;;;;;;;;;;;;;;-144.47;100.00;61586.06;5006322;28;20024;-77
2022/09/15 10:24:26;;;;;;;;;;;;;;;-144.47;100.00;61586.06;5007801;28;20393;-77
2022/09/15 10:27:04;;;;;;;;;;;;;;;-144.47;100.00;61586.06;5008554;28;20004;-78
2022/09/15 10:29:35;;;;;;;;;;;;;;;-144.47;100.00;61586.06;5009652;28;20011;-78
2022/09/15 10:32:14;;;;;;;;;;;;;;;-144.47;100.00;61586.06;5003827;28;19924;-77
2022/09/15 10:34:39;;;;;;;;;;;;;;;-144.47;100.00;61586.06;5007675;28;19917;-78
2022/09/15 10:37:07;;;;;;;;;;;;;;;-144.47;100.00;61586.06;5024320;28;19925;-78
2022/09/15 10:39:40;;;;;;;;;;;;;;;-144.47;100.00;61586.06;5007191;28;20325;-77
2022/09/15 10:42:15;;;;;;;;;;;;;;;-144.47;100.00;61586.06;5004889;28;19962;-78
2022/09/15 10:44:53;;;;;;;;;;;;;;;-144.47;100.00;61586.06;5008228;28;19913;-79
2022/09/15 10:47:38;;;;;;;;;;;;;;;-144.47;100.00;61586.06;5007909;28;20410;-78
2022/09/15 10:50:10;;;;;;;;;;;;;;;-144.47;100.00;61586.06;5007540;28;19924;-78
2022/09/15 10:53:00;;;;;;;;;;;;;;;-144.47;100.00;61586.06;5005284;28;19964;-78
2022/09/15 10:55:41;;;;;;;;;;;;;;;-144.47;100.00;61586.06;5008730;28;19920;-78
2022/09/15 10:58:12;;;;;;;;;;;;;;;-144.47;100.00;61586.06;5000492;28;19968;-78
2022/09/15 11:00:43;;;;;;;;;;;;;;;-144.47;100.00;61586.06;5002606;28;19921;-83
2022/09/15 11:03:17;;;;;;;;;;;;;;;-144.47;100.00;61586.06;5011151;28;19913;-81
2022/09/15 11:05:57;;;;;;;;;;;;;;;-144.47;100.00;61586.06;5005541;28;19971;-82
2022/09/15 11:08:26;;;;;;;;;;;;;;;-144.47;100.00;61586.06;5003383;28;19971;-82
2022/09/15 11:11:10;;;;;;;;;;;;;;;-144.47;100.00;61586.06;4655051;28;9999762;-82
2022/09/15 11:13:41;;;;;;;;;;;;;;;-144.47;100.00;61586.06;5001134;28;19917;-83
2022/09/15 11:16:13;;;;;;;;;;;;;;;-144.47;100.00;61586.06;4997293;28;19925;-81
2022/09/15 11:18:50;;;;;;;;;;;;;;;-144.47;100.00;61586.06;5013569;28;19925;-81
2022/09/15 11:21:20;;;;;;;;;;;;;;;-144.47;100.00;61586.06;4998360;28;19924;-80
2022/09/15 11:23:45;;;;;;;;;;;;;;;-144.47;100.00;61586.06;4996028;28;19940;-79
2022/09/15 11:26:14;;;;;;;;;;;;;;;-144.47;100.00;61586.06;5004753;28;20350;-81
2022/09/15 11:28:43;;;;;;;;;;;;;;;-144.47;100.00;61586.06;5001834;28;19941;-80
2022/09/15 11:31:20;;;;;;;;;;;;;;;-144.47;100.00;61586.06;5006441;28;20024;-81
2022/09/15 11:33:51;;;;;;;;;;;;;;;-144.47;100.00;61586.06;5019355;28;19921;-80